• Join FlightAware (Why Join?)
  • Login
  • US Flag 
05:13PM EDT


 

Airport Tracker/Info


-or-


 

Live Flight TrackerFlight Track Log ✈ KAP802 ✈ 08-Dec-2013 ✈ KBOS - KACK

Flight Track Log - Related Links

Times and Time Zones

All times are in EST time to prevent confusion due to time zone crossing. See the KAP802 flight status page for this flight to view local times or setup timezone preferences in your user account.

Time Position Orientation Groundspeed Altitude Reporting Facility
EST Latitude Longitude Course Direction KTS MPH feet Rate Location/Type
02:18PM 42.3333 -70.9333 149° Southeast 132 152 2,100  Level KA90
02:19PM 42.3167 -70.9000 124° Southeast 140 161 3,200 720 Climbing KA90
02:20PM 42.2833 -70.8500 132° Southeast 173 199 3,600 180 Climbing KA90
02:21PM 42.2500 -70.8000 132° Southeast 175 201 3,600 -60 Level KA90
02:22PM 42.2289 -70.7817 147° Southeast 173 199 3,500  Descending Boston Center
02:23PM 42.1548 -70.8259 149° Southeast  Level Estimated
02:23PM 42.1753 -70.7433 152° Southeast 179 206 3,600  Level Boston Center
02:24PM 42.1319 -70.7103 151° Southeast 180 207 3,600  Level Boston Center
02:25PM 42.0897 -70.6789 151° Southeast 178 205 3,600  Level Boston Center
02:26PM 42.0469 -70.6492 153° Southeast 175 201 3,600  Level Boston Center
02:27PM 42.0064 -70.6181 150° Southeast 170 196 3,600  Level Boston Center
02:28PM 41.9650 -70.5875 151° Southeast 170 196 3,600  Level Boston Center
02:29PM 41.9242 -70.5575 151° Southeast 169 194 3,600  Level Boston Center
02:30PM 41.8831 -70.5272 151° Southeast 168 193 3,600  Level Boston Center
02:31PM 41.8333 -70.4900 151° Southeast 171 197 3,600  Level Boston Center
02:32PM 41.7919 -70.4589 151° Southeast 171 197 3,600 -60 Level Boston Center
02:33PM 41.7497 -70.4289 152° Southeast 172 198 3,500 -180 Descending Boston Center
02:34PM 41.7056 -70.3958 151° Southeast 176 203 3,300 -180 Descending Boston Center
02:35PM 41.6611 -70.3633 151° Southeast 180 207 3,200 -120 Descending Boston Center
02:36PM 41.6172 -70.3297 150° Southeast 182 209 3,100 -180 Descending Boston Center
02:37PM 41.5731 -70.2969 151° Southeast 182 209 2,900 -300 Descending Boston Center
02:38PM 41.5194 -70.2583 152° Southeast 182 209 2,600 -300 Descending Boston Center
02:39PM 41.4703 -70.2419 166° South 184 212 2,400 -240 Descending Boston Center
02:40PM 41.4186 -70.2386 177° South 185 213 2,200 -360 Descending Boston Center
02:41PM 41.3669 -70.2336 176° South 185 213 1,700 -360 Descending Boston Center
02:42PM 41.3167 -70.2283 175° South 185 213 1,500 -300 Descending Boston Center
02:43PM 41.2669 -70.2264 178° South 182 209 1,100 -300 Descending Boston Center
02:44PM 41.2392 -70.1744 125° Southeast 185 213 1,000 -120 Descending Boston Center
02:45PM 41.2242 -70.1183 110° East 170 196 900 -120 Descending Boston Center
02:47PM 41.2500 -70.0500 151° Southeast  Level FlightAware Approximate
02:54PM 41.2530 -70.0599 151° Southeast  Level Estimated